sensor_id;sensor_type;location;lat;lon;timestamp;temperature;humidity
13229;DHT22;6680;53.220;10.402;2022-09-25T00:01:34;13.00;99.90
13229;DHT22;6680;53.220;10.402;2022-09-25T00:04:03;13.00;99.90
13229;DHT22;6680;53.220;10.402;2022-09-25T00:06:30;13.00;99.90
13229;DHT22;6680;53.220;10.402;2022-09-25T00:08:59;13.00;99.90
13229;DHT22;6680;53.220;10.402;2022-09-25T00:11:28;13.00;99.90
13229;DHT22;6680;53.220;10.402;2022-09-25T00:13:56;13.00;99.90
13229;DHT22;6680;53.220;10.402;2022-09-25T00:16:25;13.00;99.90
13229;DHT22;6680;53.220;10.402;2022-09-25T00:18:54;13.00;99.90
13229;DHT22;6680;53.220;10.402;2022-09-25T00:21:40;13.00;99.90
13229;DHT22;6680;53.220;10.402;2022-09-25T00:24:09;13.00;99.90
13229;DHT22;6680;53.220;10.402;2022-09-25T00:26:38;13.00;99.90
13229;DHT22;6680;53.220;10.402;2022-09-25T00:29:05;12.90;99.90
13229;DHT22;6680;53.220;10.402;2022-09-25T00:31:33;12.90;99.90
13229;DHT22;6680;53.220;10.402;2022-09-25T00:34:02;12.80;99.90
13229;DHT22;6680;53.220;10.402;2022-09-25T00:36:30;12.80;99.90
13229;DHT22;6680;53.220;10.402;2022-09-25T00:38:58;12.80;99.90
13229;DHT22;6680;53.220;10.402;2022-09-25T00:41:26;12.80;99.90
13229;DHT22;6680;53.220;10.402;2022-09-25T00:43:56;12.80;99.90
13229;DHT22;6680;53.220;10.402;2022-09-25T00:46:26;12.70;99.90
13229;DHT22;6680;53.220;10.402;2022-09-25T00:48:58;12.70;99.90
13229;DHT22;6680;53.220;10.402;2022-09-25T00:51:28;12.70;99.90
13229;DHT22;6680;53.220;10.402;2022-09-25T00:53:58;12.70;99.90
13229;DHT22;6680;53.220;10.402;2022-09-25T00:56:30;12.60;99.90
13229;DHT22;6680;53.220;10.402;2022-09-25T00:58:58;12.60;99.90
13229;DHT22;6680;53.220;10.402;2022-09-25T01:01:25;12.60;99.90
13229;DHT22;6680;53.220;10.402;2022-09-25T01:03:52;12.50;99.90
13229;DHT22;6680;53.220;10.402;2022-09-25T01:06:21;12.50;99.90
13229;DHT22;6680;53.220;10.402;2022-09-25T01:08:50;12.50;99.90
13229;DHT22;6680;53.220;10.402;2022-09-25T01:11:18;12.50;99.90
13229;DHT22;6680;53.220;10.402;2022-09-25T01:13:45;12.40;99.90
13229;DHT22;6680;53.220;10.402;2022-09-25T01:16:18;12.40;99.90
13229;DHT22;6680;53.220;10.402;2022-09-25T01:18:58;12.40;99.90
13229;DHT22;6680;53.220;10.402;2022-09-25T01:21:34;12.40;99.90
13229;DHT22;6680;53.220;10.402;2022-09-25T01:27:28;12.40;99.90
13229;DHT22;6680;53.220;10.402;2022-09-25T01:30:02;12.40;99.90
13229;DHT22;6680;53.220;10.402;2022-09-25T01:32:35;12.40;99.90
13229;DHT22;6680;53.220;10.402;2022-09-25T01:35:07;12.40;99.90
13229;DHT22;6680;53.220;10.402;2022-09-25T01:37:42;12.40;99.90
13229;DHT22;6680;53.220;10.402;2022-09-25T01:40:13;12.40;99.90
13229;DHT22;6680;53.220;10.402;2022-09-25T01:42:46;12.50;99.90
13229;DHT22;6680;53.220;10.402;2022-09-25T01:45:19;12.50;99.90
13229;DHT22;6680;53.220;10.402;2022-09-25T01:47:50;12.50;99.90
13229;DHT22;6680;53.220;10.402;2022-09-25T01:50:23;12.50;99.90
13229;DHT22;6680;53.220;10.402;2022-09-25T01:52:55;12.50;99.90
13229;DHT22;6680;53.220;10.402;2022-09-25T01:55:27;12.60;99.90
13229;DHT22;6680;53.220;10.402;2022-09-25T01:58:00;12.60;99.90
13229;DHT22;6680;53.220;10.402;2022-09-25T02:00:31;12.60;99.90
13229;DHT22;6680;53.220;10.402;2022-09-25T02:03:07;12.60;99.90
13229;DHT22;6680;53.220;10.402;2022-09-25T02:05:39;12.80;99.90
13229;DHT22;6680;53.220;10.402;2022-09-25T02:08:11;12.60;99.90
13229;DHT22;6680;53.220;10.402;2022-09-25T02:10:42;12.60;99.90
13229;DHT22;6680;53.220;10.402;2022-09-25T02:13:13;12.60;99.90
13229;DHT22;6680;53.220;10.402;2022-09-25T02:15:45;12.60;99.90
13229;DHT22;6680;53.220;10.402;2022-09-25T02:18:15;12.60;99.90
13229;DHT22;6680;53.220;10.402;2022-09-25T02:21:11;12.60;99.90
13229;DHT22;6680;53.220;10.402;2022-09-25T02:23:46;12.60;99.90
13229;DHT22;6680;53.220;10.402;2022-09-25T02:26:19;12.60;99.90
13229;DHT22;6680;53.220;10.402;2022-09-25T02:28:47;12.50;99.90
13229;DHT22;6680;53.220;10.402;2022-09-25T02:31:18;12.50;99.90
13229;DHT22;6680;53.220;10.402;2022-09-25T02:33:46;12.50;99.90
13229;DHT22;6680;53.220;10.402;2022-09-25T02:36:17;12.40;99.90
13229;DHT22;6680;53.220;10.402;2022-09-25T02:38:46;12.40;99.90
13229;DHT22;6680;53.220;10.402;2022-09-25T02:41:19;12.30;99.90
13229;DHT22;6680;53.220;10.402;2022-09-25T02:43:53;12.30;99.90
13229;DHT22;6680;53.220;10.402;2022-09-25T02:46:28;12.30;99.90
13229;DHT22;6680;53.220;10.402;2022-09-25T02:49:05;12.30;99.90
13229;DHT22;6680;53.220;10.402;2022-09-25T02:51:38;12.20;99.90
13229;DHT22;6680;53.220;10.402;2022-09-25T02:54:10;12.20;99.90
13229;DHT22;6680;53.220;10.402;2022-09-25T02:56:42;12.10;99.90
13229;DHT22;6680;53.220;10.402;2022-09-25T02:59:15;12.10;99.90
13229;DHT22;6680;53.220;10.402;2022-09-25T03:01:45;12.10;99.90
13229;DHT22;6680;53.220;10.402;2022-09-25T03:04:13;12.00;99.90
13229;DHT22;6680;53.220;10.402;2022-09-25T03:06:42;12.00;99.90
13229;DHT22;6680;53.220;10.402;2022-09-25T03:09:10;12.00;99.90
13229;DHT22;6680;53.220;10.402;2022-09-25T03:11:37;12.00;99.90
13229;DHT22;6680;53.220;10.402;2022-09-25T03:14:06;12.00;99.90
13229;DHT22;6680;53.220;10.402;2022-09-25T03:16:36;12.00;99.90
13229;DHT22;6680;53.220;10.402;2022-09-25T03:19:06;12.10;99.90
13229;DHT22;6680;53.220;10.402;2022-09-25T03:21:33;12.10;99.90
13229;DHT22;6680;53.220;10.402;2022-09-25T03:24:00;12.10;99.90
13229;DHT22;6680;53.220;10.402;2022-09-25T03:26:27;12.20;99.90
13229;DHT22;6680;53.220;10.402;2022-09-25T03:28:55;12.20;99.90
13229;DHT22;6680;53.220;10.402;2022-09-25T03:31:22;12.20;99.90
13229;DHT22;6680;53.220;10.402;2022-09-25T03:33:49;12.30;99.90
13229;DHT22;6680;53.220;10.402;2022-09-25T03:36:18;12.30;99.90
13229;DHT22;6680;53.220;10.402;2022-09-25T03:38:47;12.30;99.90
13229;DHT22;6680;53.220;10.402;2022-09-25T03:41:16;12.30;99.90
13229;DHT22;6680;53.220;10.402;2022-09-25T03:43:45;12.30;99.90
13229;DHT22;6680;53.220;10.402;2022-09-25T03:46:15;12.40;99.90
13229;DHT22;6680;53.220;10.402;2022-09-25T03:48:42;12.30;99.90
13229;DHT22;6680;53.220;10.402;2022-09-25T03:51:09;12.30;99.90
13229;DHT22;6680;53.220;10.402;2022-09-25T03:53:39;12.30;99.90
13229;DHT22;6680;53.220;10.402;2022-09-25T03:56:08;12.20;99.90
13229;DHT22;6680;53.220;10.402;2022-09-25T03:58:36;12.30;99.90
13229;DHT22;6680;53.220;10.402;2022-09-25T04:01:03;12.30;99.90
13229;DHT22;6680;53.220;10.402;2022-09-25T04:03:31;12.30;99.90
13229;DHT22;6680;53.220;10.402;2022-09-25T04:06:00;12.40;99.90
13229;DHT22;6680;53.220;10.402;2022-09-25T04:08:30;12.40;99.90
13229;DHT22;6680;53.220;10.402;2022-09-25T04:10:59;12.40;99.90
13229;DHT22;6680;53.220;10.402;2022-09-25T04:13:27;12.50;99.90
13229;DHT22;6680;53.220;10.402;2022-09-25T04:15:55;12.50;99.90
13229;DHT22;6680;53.220;10.402;2022-09-25T04:18:22;12.50;99.90
13229;DHT22;6680;53.220;10.402;2022-09-25T04:20:49;12.50;99.90
13229;DHT22;6680;53.220;10.402;2022-09-25T04:23:16;12.60;99.90
13229;DHT22;6680;53.220;10.402;2022-09-25T04:25:43;12.70;99.90
13229;DHT22;6680;53.220;10.402;2022-09-25T04:28:11;12.60;99.90
13229;DHT22;6680;53.220;10.402;2022-09-25T04:30:38;12.60;99.90
13229;DHT22;6680;53.220;10.402;2022-09-25T04:33:04;12.60;99.90
13229;DHT22;6680;53.220;10.402;2022-09-25T04:35:49;12.60;99.90
13229;DHT22;6680;53.220;10.402;2022-09-25T04:38:15;12.70;99.90
13229;DHT22;6680;53.220;10.402;2022-09-25T04:40:42;12.70;99.90
13229;DHT22;6680;53.220;10.402;2022-09-25T04:43:11;12.70;99.90
13229;DHT22;6680;53.220;10.402;2022-09-25T04:45:38;12.70;99.90
13229;DHT22;6680;53.220;10.402;2022-09-25T04:48:05;12.60;99.90
13229;DHT22;6680;53.220;10.402;2022-09-25T04:50:32;12.60;99.90
13229;DHT22;6680;53.220;10.402;2022-09-25T04:53:00;12.90;99.90
13229;DHT22;6680;53.220;10.402;2022-09-25T04:55:27;12.70;99.90
13229;DHT22;6680;53.220;10.402;2022-09-25T04:57:56;12.70;99.90
13229;DHT22;6680;53.220;10.402;2022-09-25T05:00:25;12.60;99.90
13229;DHT22;6680;53.220;10.402;2022-09-25T05:02:53;12.60;99.90
13229;DHT22;6680;53.220;10.402;2022-09-25T05:05:20;12.60;99.90
13229;DHT22;6680;53.220;10.402;2022-09-25T05:07:50;12.60;99.90
13229;DHT22;6680;53.220;10.402;2022-09-25T05:10:17;12.60;99.90
13229;DHT22;6680;53.220;10.402;2022-09-25T05:12:45;12.60;99.90
13229;DHT22;6680;53.220;10.402;2022-09-25T05:15:12;12.60;99.90
13229;DHT22;6680;53.220;10.402;2022-09-25T05:17:40;12.70;99.90
13229;DHT22;6680;53.220;10.402;2022-09-25T05:20:08;12.60;99.90
13229;DHT22;6680;53.220;10.402;2022-09-25T05:22:35;12.50;99.90
13229;DHT22;6680;53.220;10.402;2022-09-25T05:25:01;12.60;99.90
13229;DHT22;6680;53.220;10.402;2022-09-25T05:27:31;12.60;99.90
13229;DHT22;6680;53.220;10.402;2022-09-25T05:29:58;12.80;99.90
13229;DHT22;6680;53.220;10.402;2022-09-25T05:32:24;12.50;99.90
13229;DHT22;6680;53.220;10.402;2022-09-25T05:34:52;12.50;99.90
13229;DHT22;6680;53.220;10.402;2022-09-25T05:37:19;12.60;99.90
13229;DHT22;6680;53.220;10.402;2022-09-25T05:39:46;12.60;99.90
13229;DHT22;6680;53.220;10.402;2022-09-25T05:42:12;12.60;99.90
13229;DHT22;6680;53.220;10.402;2022-09-25T05:44:44;12.60;99.90
13229;DHT22;6680;53.220;10.402;2022-09-25T05:47:10;12.70;99.90
13229;DHT22;6680;53.220;10.402;2022-09-25T05:49:37;12.60;99.90
13229;DHT22;6680;53.220;10.402;2022-09-25T05:52:05;12.60;99.90
13229;DHT22;6680;53.220;10.402;2022-09-25T05:54:31;12.70;99.90
13229;DHT22;6680;53.220;10.402;2022-09-25T05:56:58;12.70;99.90
13229;DHT22;6680;53.220;10.402;2022-09-25T05:59:25;12.70;99.90
13229;DHT22;6680;53.220;10.402;2022-09-25T06:01:52;12.80;99.90
13229;DHT22;6680;53.220;10.402;2022-09-25T06:04:18;12.70;99.90
13229;DHT22;6680;53.220;10.402;2022-09-25T06:06:45;12.80;99.90
13229;DHT22;6680;53.220;10.402;2022-09-25T06:09:13;12.80;99.90
13229;DHT22;6680;53.220;10.402;2022-09-25T06:11:40;12.80;99.90
13229;DHT22;6680;53.220;10.402;2022-09-25T06:14:12;12.80;99.90
13229;DHT22;6680;53.220;10.402;2022-09-25T06:16:38;12.90;99.90
13229;DHT22;6680;53.220;10.402;2022-09-25T06:19:05;12.90;99.90
13229;DHT22;6680;53.220;10.402;2022-09-25T06:21:32;13.00;99.90
13229;DHT22;6680;53.220;10.402;2022-09-25T06:23:59;13.00;99.90
13229;DHT22;6680;53.220;10.402;2022-09-25T06:26:27;13.00;99.90
13229;DHT22;6680;53.220;10.402;2022-09-25T06:28:54;13.00;99.90
13229;DHT22;6680;53.220;10.402;2022-09-25T06:31:21;13.10;99.90
13229;DHT22;6680;53.220;10.402;2022-09-25T06:33:49;13.00;99.90
13229;DHT22;6680;53.220;10.402;2022-09-25T06:36:16;13.00;99.90
13229;DHT22;6680;53.220;10.402;2022-09-25T06:38:42;13.00;99.90
13229;DHT22;6680;53.220;10.402;2022-09-25T06:41:09;13.00;99.90
13229;DHT22;6680;53.220;10.402;2022-09-25T06:43:37;13.10;99.90
13229;DHT22;6680;53.220;10.402;2022-09-25T06:46:04;13.10;99.90
13229;DHT22;6680;53.220;10.402;2022-09-25T06:48:31;13.10;99.90
13229;DHT22;6680;53.220;10.402;2022-09-25T06:50:59;13.10;99.90
13229;DHT22;6680;53.220;10.402;2022-09-25T06:53:26;13.10;99.90
13229;DHT22;6680;53.220;10.402;2022-09-25T06:55:56;13.20;99.90
13229;DHT22;6680;53.220;10.402;2022-09-25T06:58:23;13.20;99.90
13229;DHT22;6680;53.220;10.402;2022-09-25T07:00:53;13.30;99.90
13229;DHT22;6680;53.220;10.402;2022-09-25T07:03:21;13.30;99.90
13229;DHT22;6680;53.220;10.402;2022-09-25T07:06:07;13.40;99.90
13229;DHT22;6680;53.220;10.402;2022-09-25T07:08:35;13.40;99.90
13229;DHT22;6680;53.220;10.402;2022-09-25T07:11:02;13.40;99.90
13229;DHT22;6680;53.220;10.402;2022-09-25T07:13:31;13.40;99.90
13229;DHT22;6680;53.220;10.402;2022-09-25T07:16:02;13.40;99.90
13229;DHT22;6680;53.220;10.402;2022-09-25T07:18:29;13.40;99.90
13229;DHT22;6680;53.220;10.402;2022-09-25T07:20:59;13.40;99.90
13229;DHT22;6680;53.220;10.402;2022-09-25T07:23:28;13.40;99.90
13229;DHT22;6680;53.220;10.402;2022-09-25T07:25:56;13.40;99.90
13229;DHT22;6680;53.220;10.402;2022-09-25T07:28:23;13.40;99.90
13229;DHT22;6680;53.220;10.402;2022-09-25T07:30:50;13.50;99.90
13229;DHT22;6680;53.220;10.402;2022-09-25T07:33:18;13.50;99.90
13229;DHT22;6680;53.220;10.402;2022-09-25T07:35:45;13.40;99.90
13229;DHT22;6680;53.220;10.402;2022-09-25T07:38:12;13.60;99.90
13229;DHT22;6680;53.220;10.402;2022-09-25T07:40:39;13.70;99.90
13229;DHT22;6680;53.220;10.402;2022-09-25T07:43:06;13.70;99.90
13229;DHT22;6680;53.220;10.402;2022-09-25T07:45:33;14.00;99.90
13229;DHT22;6680;53.220;10.402;2022-09-25T07:48:01;13.90;99.90
13229;DHT22;6680;53.220;10.402;2022-09-25T07:50:30;13.90;99.90
13229;DHT22;6680;53.220;10.402;2022-09-25T07:52:57;14.10;99.90
13229;DHT22;6680;53.220;10.402;2022-09-25T07:55:25;14.20;99.90
13229;DHT22;6680;53.220;10.402;2022-09-25T07:57:55;14.20;99.90
13229;DHT22;6680;53.220;10.402;2022-09-25T08:00:22;14.20;99.90
13229;DHT22;6680;53.220;10.402;2022-09-25T08:02:54;14.20;99.90
13229;DHT22;6680;53.220;10.402;2022-09-25T08:05:21;14.10;99.90
13229;DHT22;6680;53.220;10.402;2022-09-25T08:07:49;14.10;99.90
13229;DHT22;6680;53.220;10.402;2022-09-25T08:10:17;14.10;99.90
13229;DHT22;6680;53.220;10.402;2022-09-25T08:12:44;14.10;99.90
13229;DHT22;6680;53.220;10.402;2022-09-25T08:15:11;14.20;99.90
13229;DHT22;6680;53.220;10.402;2022-09-25T08:17:39;14.20;99.90
13229;DHT22;6680;53.220;10.402;2022-09-25T08:20:06;14.30;99.90
13229;DHT22;6680;53.220;10.402;2022-09-25T08:22:33;14.40;99.90
13229;DHT22;6680;53.220;10.402;2022-09-25T08:25:01;14.50;99.90
13229;DHT22;6680;53.220;10.402;2022-09-25T08:27:29;14.60;99.90
13229;DHT22;6680;53.220;10.402;2022-09-25T08:29:56;14.70;99.90
13229;DHT22;6680;53.220;10.402;2022-09-25T08:32:23;14.70;99.90
13229;DHT22;6680;53.220;10.402;2022-09-25T08:34:49;14.70;99.90
13229;DHT22;6680;53.220;10.402;2022-09-25T08:37:16;14.70;99.90
13229;DHT22;6680;53.220;10.402;2022-09-25T08:39:43;14.80;99.90
13229;DHT22;6680;53.220;10.402;2022-09-25T08:42:16;14.80;99.90
13229;DHT22;6680;53.220;10.402;2022-09-25T08:44:48;14.80;99.90
13229;DHT22;6680;53.220;10.402;2022-09-25T08:47:36;14.80;99.90
13229;DHT22;6680;53.220;10.402;2022-09-25T08:50:22;14.90;99.90
13229;DHT22;6680;53.220;10.402;2022-09-25T08:52:52;14.90;99.90
13229;DHT22;6680;53.220;10.402;2022-09-25T08:55:24;14.90;99.90
13229;DHT22;6680;53.220;10.402;2022-09-25T08:58:19;14.80;99.90
13229;DHT22;6680;53.220;10.402;2022-09-25T09:00:46;14.70;99.90
13229;DHT22;6680;53.220;10.402;2022-09-25T09:03:14;14.70;99.90
13229;DHT22;6680;53.220;10.402;2022-09-25T09:05:42;14.50;99.90
13229;DHT22;6680;53.220;10.402;2022-09-25T09:08:14;14.70;99.90
13229;DHT22;6680;53.220;10.402;2022-09-25T09:10:44;14.80;99.90
13229;DHT22;6680;53.220;10.402;2022-09-25T09:13:18;15.00;99.90
13229;DHT22;6680;53.220;10.402;2022-09-25T09:15:53;15.00;99.90
13229;DHT22;6680;53.220;10.402;2022-09-25T09:18:26;15.20;99.90
13229;DHT22;6680;53.220;10.402;2022-09-25T09:20:54;15.30;99.90
13229;DHT22;6680;53.220;10.402;2022-09-25T09:23:23;15.30;99.90
13229;DHT22;6680;53.220;10.402;2022-09-25T09:26:01;15.40;99.90
13229;DHT22;6680;53.220;10.402;2022-09-25T09:31:40;15.40;99.90
13229;DHT22;6680;53.220;10.402;2022-09-25T09:34:29;15.30;99.90
13229;DHT22;6680;53.220;10.402;2022-09-25T09:37:03;15.20;99.90
13229;DHT22;6680;53.220;10.402;2022-09-25T09:39:37;15.10;99.90
13229;DHT22;6680;53.220;10.402;2022-09-25T09:42:10;15.00;99.90
13229;DHT22;6680;53.220;10.402;2022-09-25T09:44:48;15.00;99.90
13229;DHT22;6680;53.220;10.402;2022-09-25T09:47:35;15.00;99.90
13229;DHT22;6680;53.220;10.402;2022-09-25T09:50:18;15.10;99.90
13229;DHT22;6680;53.220;10.402;2022-09-25T09:52:48;15.10;99.90
13229;DHT22;6680;53.220;10.402;2022-09-25T09:55:21;15.20;99.90
13229;DHT22;6680;53.220;10.402;2022-09-25T09:57:51;15.30;99.90
13229;DHT22;6680;53.220;10.402;2022-09-25T10:00:21;15.30;99.90
13229;DHT22;6680;53.220;10.402;2022-09-25T10:02:53;15.40;99.90
13229;DHT22;6680;53.220;10.402;2022-09-25T10:05:24;15.80;99.90
13229;DHT22;6680;53.220;10.402;2022-09-25T10:07:52;15.70;99.90
13229;DHT22;6680;53.220;10.402;2022-09-25T10:10:20;15.80;99.90
13229;DHT22;6680;53.220;10.402;2022-09-25T10:12:50;15.80;99.90
13229;DHT22;6680;53.220;10.402;2022-09-25T10:15:26;15.70;99.90
13229;DHT22;6680;53.220;10.402;2022-09-25T10:17:57;15.70;99.90
13229;DHT22;6680;53.220;10.402;2022-09-25T10:20:28;15.80;99.90
13229;DHT22;6680;53.220;10.402;2022-09-25T10:22:57;15.90;99.90
13229;DHT22;6680;53.220;10.402;2022-09-25T10:25:36;15.80;99.90
13229;DHT22;6680;53.220;10.402;2022-09-25T10:28:26;16.10;99.90
13229;DHT22;6680;53.220;10.402;2022-09-25T10:30:53;16.20;99.90
13229;DHT22;6680;53.220;10.402;2022-09-25T10:33:24;16.40;99.90
13229;DHT22;6680;53.220;10.402;2022-09-25T10:35:51;16.20;99.90
13229;DHT22;6680;53.220;10.402;2022-09-25T10:38:35;16.10;99.90
13229;DHT22;6680;53.220;10.402;2022-09-25T10:41:06;16.10;99.90
13229;DHT22;6680;53.220;10.402;2022-09-25T10:43:33;16.00;99.90
13229;DHT22;6680;53.220;10.402;2022-09-25T10:46:06;16.00;99.90
13229;DHT22;6680;53.220;10.402;2022-09-25T10:48:36;15.90;99.90
13229;DHT22;6680;53.220;10.402;2022-09-25T10:51:21;15.80;99.90
13229;DHT22;6680;53.220;10.402;2022-09-25T10:53:50;15.90;99.90
13229;DHT22;6680;53.220;10.402;2022-09-25T10:56:19;16.00;99.90
13229;DHT22;6680;53.220;10.402;2022-09-25T10:58:50;16.00;99.90
13229;DHT22;6680;53.220;10.402;2022-09-25T11:01:20;15.90;99.90
13229;DHT22;6680;53.220;10.402;2022-09-25T11:03:56;15.90;99.90
13229;DHT22;6680;53.220;10.402;2022-09-25T11:06:25;15.90;99.90
13229;DHT22;6680;53.220;10.402;2022-09-25T11:09:11;15.90;99.90
13229;DHT22;6680;53.220;10.402;2022-09-25T11:11:39;15.80;99.90
13229;DHT22;6680;53.220;10.402;2022-09-25T11:14:15;15.70;99.90
13229;DHT22;6680;53.220;10.402;2022-09-25T11:16:48;15.60;99.90
13229;DHT22;6680;53.220;10.402;2022-09-25T11:19:21;15.60;99.90
13229;DHT22;6680;53.220;10.402;2022-09-25T11:21:53;15.50;99.90
13229;DHT22;6680;53.220;10.402;2022-09-25T11:24:28;15.40;99.90
13229;DHT22;6680;53.220;10.402;2022-09-25T11:27:08;15.30;99.90
13229;DHT22;6680;53.220;10.402;2022-09-25T11:29:43;15.10;99.90
13229;DHT22;6680;53.220;10.402;2022-09-25T11:32:18;14.90;99.90
13229;DHT22;6680;53.220;10.402;2022-09-25T11:35:18;14.80;99.90
13229;DHT22;6680;53.220;10.402;2022-09-25T11:37:57;14.60;99.90
13229;DHT22;6680;53.220;10.402;2022-09-25T11:40:35;14.60;99.90
13229;DHT22;6680;53.220;10.402;2022-09-25T11:43:29;14.50;99.90
13229;DHT22;6680;53.220;10.402;2022-09-25T11:46:04;14.50;99.90
13229;DHT22;6680;53.220;10.402;2022-09-25T11:48:43;14.40;99.90
13229;DHT22;6680;53.220;10.402;2022-09-25T11:51:18;14.40;99.90
13229;DHT22;6680;53.220;10.402;2022-09-25T11:53:55;14.30;99.90
13229;DHT22;6680;53.220;10.402;2022-09-25T11:56:30;14.30;99.90
13229;DHT22;6680;53.220;10.402;2022-09-25T11:59:14;14.20;99.90
13229;DHT22;6680;53.220;10.402;2022-09-25T12:01:47;14.20;99.90
13229;DHT22;6680;53.220;10.402;2022-09-25T12:04:35;14.00;99.90
13229;DHT22;6680;53.220;10.402;2022-09-25T12:07:21;14.10;99.90
13229;DHT22;6680;53.220;10.402;2022-09-25T12:10:10;13.80;99.90
13229;DHT22;6680;53.220;10.402;2022-09-25T12:12:44;13.90;99.90
13229;DHT22;6680;53.220;10.402;2022-09-25T12:15:20;13.80;99.90
13229;DHT22;6680;53.220;10.402;2022-09-25T12:17:57;13.90;99.90
13229;DHT22;6680;53.220;10.402;2022-09-25T12:20:29;13.90;99.90
13229;DHT22;6680;53.220;10.402;2022-09-25T12:23:10;14.00;99.90
13229;DHT22;6680;53.220;10.402;2022-09-25T12:25:50;14.00;99.90
13229;DHT22;6680;53.220;10.402;2022-09-25T12:28:27;13.90;99.90
13229;DHT22;6680;53.220;10.402;2022-09-25T12:31:03;13.90;99.90
13229;DHT22;6680;53.220;10.402;2022-09-25T12:33:37;13.80;99.90
13229;DHT22;6680;53.220;10.402;2022-09-25T12:36:10;13.70;99.90
13229;DHT22;6680;53.220;10.402;2022-09-25T12:38:44;13.70;99.90
13229;DHT22;6680;53.220;10.402;2022-09-25T12:41:17;13.50;99.90
13229;DHT22;6680;53.220;10.402;2022-09-25T12:43:50;13.50;99.90
13229;DHT22;6680;53.220;10.402;2022-09-25T12:46:23;13.50;99.90
13229;DHT22;6680;53.220;10.402;2022-09-25T12:48:55;13.70;99.90
13229;DHT22;6680;53.220;10.402;2022-09-25T12:51:25;13.70;99.90
13229;DHT22;6680;53.220;10.402;2022-09-25T12:53:58;13.60;99.90
13229;DHT22;6680;53.220;10.402;2022-09-25T12:56:30;13.60;99.90
13229;DHT22;6680;53.220;10.402;2022-09-25T12:59:03;13.40;99.90
13229;DHT22;6680;53.220;10.402;2022-09-25T13:01:37;13.40;99.90
13229;DHT22;6680;53.220;10.402;2022-09-25T13:04:19;13.40;99.90
13229;DHT22;6680;53.220;10.402;2022-09-25T13:06:51;13.30;99.90
13229;DHT22;6680;53.220;10.402;2022-09-25T13:09:28;13.30;99.90
13229;DHT22;6680;53.220;10.402;2022-09-25T13:12:02;13.40;99.90
13229;DHT22;6680;53.220;10.402;2022-09-25T13:14:34;13.50;99.90
13229;DHT22;6680;53.220;10.402;2022-09-25T13:17:04;13.60;99.90
13229;DHT22;6680;53.220;10.402;2022-09-25T13:19:32;13.50;99.90
13229;DHT22;6680;53.220;10.402;2022-09-25T13:22:02;13.70;99.90
13229;DHT22;6680;53.220;10.402;2022-09-25T13:24:37;13.70;99.90
13229;DHT22;6680;53.220;10.402;2022-09-25T13:27:04;13.70;99.90
13229;DHT22;6680;53.220;10.402;2022-09-25T13:29:36;13.80;99.90
13229;DHT22;6680;53.220;10.402;2022-09-25T13:32:06;13.80;99.90
13229;DHT22;6680;53.220;10.402;2022-09-25T13:34:40;14.00;99.90
13229;DHT22;6680;53.220;10.402;2022-09-25T13:37:08;14.20;99.90
13229;DHT22;6680;53.220;10.402;2022-09-25T13:39:38;14.40;99.90
13229;DHT22;6680;53.220;10.402;2022-09-25T13:42:26;14.60;99.90
13229;DHT22;6680;53.220;10.402;2022-09-25T13:45:24;14.70;99.90
13229;DHT22;6680;53.220;10.402;2022-09-25T13:47:57;14.70;99.90
13229;DHT22;6680;53.220;10.402;2022-09-25T13:50:27;14.70;99.90
13229;DHT22;6680;53.220;10.402;2022-09-25T13:53:15;14.60;99.90
13229;DHT22;6680;53.220;10.402;2022-09-25T14:05:04;14.50;99.90
13229;DHT22;6680;53.220;10.402;2022-09-25T14:07:31;14.50;99.90
13229;DHT22;6680;53.220;10.402;2022-09-25T14:10:00;14.50;99.90
13229;DHT22;6680;53.220;10.402;2022-09-25T14:12:46;14.50;99.90
13229;DHT22;6680;53.220;10.402;2022-09-25T14:15:26;14.50;99.90
13229;DHT22;6680;53.220;10.402;2022-09-25T14:17:56;14.50;99.90
13229;DHT22;6680;53.220;10.402;2022-09-25T14:20:30;14.40;99.90
13229;DHT22;6680;53.220;10.402;2022-09-25T14:23:00;14.30;99.90
13229;DHT22;6680;53.220;10.402;2022-09-25T14:25:30;14.20;99.90
13229;DHT22;6680;53.220;10.402;2022-09-25T14:27:59;14.20;99.90
13229;DHT22;6680;53.220;10.402;2022-09-25T14:30:27;14.20;99.90
13229;DHT22;6680;53.220;10.402;2022-09-25T14:33:17;14.10;99.90
13229;DHT22;6680;53.220;10.402;2022-09-25T14:35:54;13.90;99.90
13229;DHT22;6680;53.220;10.402;2022-09-25T14:38:46;14.10;99.90
13229;DHT22;6680;53.220;10.402;2022-09-25T14:41:29;14.10;99.90
13229;DHT22;6680;53.220;10.402;2022-09-25T14:44:12;14.00;99.90
13229;DHT22;6680;53.220;10.402;2022-09-25T14:46:42;14.00;99.90
13229;DHT22;6680;53.220;10.402;2022-09-25T14:49:17;14.10;99.90
13229;DHT22;6680;53.220;10.402;2022-09-25T14:51:47;14.10;99.90
13229;DHT22;6680;53.220;10.402;2022-09-25T14:54:17;14.10;99.90
13229;DHT22;6680;53.220;10.402;2022-09-25T14:56:46;14.10;99.90
13229;DHT22;6680;53.220;10.402;2022-09-25T14:59:19;14.10;99.90
13229;DHT22;6680;53.220;10.402;2022-09-25T15:01:50;14.10;99.90
13229;DHT22;6680;53.220;10.402;2022-09-25T15:04:26;14.00;99.90
13229;DHT22;6680;53.220;10.402;2022-09-25T15:06:59;14.10;99.90
13229;DHT22;6680;53.220;10.402;2022-09-25T15:09:29;14.20;99.90
13229;DHT22;6680;53.220;10.402;2022-09-25T15:11:56;14.30;99.90
13229;DHT22;6680;53.220;10.402;2022-09-25T15:14:23;14.40;99.90
13229;DHT22;6680;53.220;10.402;2022-09-25T15:16:50;14.40;99.90
13229;DHT22;6680;53.220;10.402;2022-09-25T15:19:38;14.40;99.90
13229;DHT22;6680;53.220;10.402;2022-09-25T15:22:08;14.40;99.90
13229;DHT22;6680;53.220;10.402;2022-09-25T15:24:37;14.20;99.90
13229;DHT22;6680;53.220;10.402;2022-09-25T15:27:06;14.00;99.90
13229;DHT22;6680;53.220;10.402;2022-09-25T15:29:35;13.90;99.90
13229;DHT22;6680;53.220;10.402;2022-09-25T15:32:03;13.80;99.90
13229;DHT22;6680;53.220;10.402;2022-09-25T15:34:31;13.50;99.90
13229;DHT22;6680;53.220;10.402;2022-09-25T15:37:17;13.60;99.90
13229;DHT22;6680;53.220;10.402;2022-09-25T15:39:45;13.50;99.90
13229;DHT22;6680;53.220;10.402;2022-09-25T15:42:13;13.50;99.90
13229;DHT22;6680;53.220;10.402;2022-09-25T15:44:40;13.40;99.90
13229;DHT22;6680;53.220;10.402;2022-09-25T15:50:22;13.30;99.90
13229;DHT22;6680;53.220;10.402;2022-09-25T15:52:53;13.30;99.90
13229;DHT22;6680;53.220;10.402;2022-09-25T15:55:21;13.20;99.90
13229;DHT22;6680;53.220;10.402;2022-09-25T15:57:48;13.20;99.90
13229;DHT22;6680;53.220;10.402;2022-09-25T16:00:18;13.20;99.90
13229;DHT22;6680;53.220;10.402;2022-09-25T16:03:05;13.10;99.90
13229;DHT22;6680;53.220;10.402;2022-09-25T16:05:53;13.00;99.90
13229;DHT22;6680;53.220;10.402;2022-09-25T16:08:28;13.00;99.90
13229;DHT22;6680;53.220;10.402;2022-09-25T16:11:14;12.80;99.90
13229;DHT22;6680;53.220;10.402;2022-09-25T16:13:44;12.80;99.90
13229;DHT22;6680;53.220;10.402;2022-09-25T16:16:17;12.80;99.90